sensor_id;sensor_type;location;lat;lon;timestamp;temperature;humidity
21092;DHT22;10704;42.678;23.288;2023-11-21T00:02:20;4.70;99.90
21092;DHT22;10704;42.678;23.288;2023-11-21T00:04:47;4.60;99.90
21092;DHT22;10704;42.678;23.288;2023-11-21T00:07:13;4.50;99.90
21092;DHT22;10704;42.678;23.288;2023-11-21T00:09:40;4.40;99.90
21092;DHT22;10704;42.678;23.288;2023-11-21T00:16:08;4.30;99.90
21092;DHT22;10704;42.678;23.288;2023-11-21T00:18:34;4.40;99.90
21092;DHT22;10704;42.678;23.288;2023-11-21T00:20:59;4.40;99.90
21092;DHT22;10704;42.678;23.288;2023-11-21T00:23:25;4.40;99.90
21092;DHT22;10704;42.678;23.288;2023-11-21T00:25:51;4.40;99.90
21092;DHT22;10704;42.678;23.288;2023-11-21T00:32:05;4.50;99.90
21092;DHT22;10704;42.678;23.288;2023-11-21T00:45:04;4.70;99.90
21092;DHT22;10704;42.678;23.288;2023-11-21T00:51:17;4.60;99.90
21092;DHT22;10704;42.678;23.288;2023-11-21T00:53:43;4.50;99.90
21092;DHT22;10704;42.678;23.288;2023-11-21T00:56:09;4.50;99.90
21092;DHT22;10704;42.678;23.288;2023-11-21T00:58:36;4.40;99.90
21092;DHT22;10704;42.678;23.288;2023-11-21T01:01:02;4.40;99.90
21092;DHT22;10704;42.678;23.288;2023-11-21T01:03:29;4.30;99.90
21092;DHT22;10704;42.678;23.288;2023-11-21T01:05:55;4.20;99.90
21092;DHT22;10704;42.678;23.288;2023-11-21T01:08:20;4.30;99.90
21092;DHT22;10704;42.678;23.288;2023-11-21T01:10:47;4.20;99.90
21092;DHT22;10704;42.678;23.288;2023-11-21T01:13:13;4.20;99.90
21092;DHT22;10704;42.678;23.288;2023-11-21T01:15:40;4.10;99.90
21092;DHT22;10704;42.678;23.288;2023-11-21T01:18:07;4.10;99.90
21092;DHT22;10704;42.678;23.288;2023-11-21T01:20:34;4.10;99.90
21092;DHT22;10704;42.678;23.288;2023-11-21T01:23:00;4.20;99.90
21092;DHT22;10704;42.678;23.288;2023-11-21T01:25:27;4.10;99.90
21092;DHT22;10704;42.678;23.288;2023-11-21T01:27:52;4.20;99.90
21092;DHT22;10704;42.678;23.288;2023-11-21T01:30:18;4.10;99.90
21092;DHT22;10704;42.678;23.288;2023-11-21T01:32:45;4.10;99.90
21092;DHT22;10704;42.678;23.288;2023-11-21T01:35:11;4.10;99.90
21092;DHT22;10704;42.678;23.288;2023-11-21T01:41:27;4.00;99.90
21092;DHT22;10704;42.678;23.288;2023-11-21T01:44:24;4.00;99.90
21092;DHT22;10704;42.678;23.288;2023-11-21T01:46:51;4.00;99.90
21092;DHT22;10704;42.678;23.288;2023-11-21T01:49:18;4.00;99.90
21092;DHT22;10704;42.678;23.288;2023-11-21T01:51:48;4.00;99.90
21092;DHT22;10704;42.678;23.288;2023-11-21T01:54:18;3.90;99.90
21092;DHT22;10704;42.678;23.288;2023-11-21T01:56:46;3.90;99.90
21092;DHT22;10704;42.678;23.288;2023-11-21T01:59:15;4.00;99.90
21092;DHT22;10704;42.678;23.288;2023-11-21T02:05:31;3.80;99.90
21092;DHT22;10704;42.678;23.288;2023-11-21T02:11:45;3.90;99.90
21092;DHT22;10704;42.678;23.288;2023-11-21T02:14:12;3.80;99.90
21092;DHT22;10704;42.678;23.288;2023-11-21T02:16:39;3.80;99.90
21092;DHT22;10704;42.678;23.288;2023-11-21T02:19:07;3.70;99.90
21092;DHT22;10704;42.678;23.288;2023-11-21T02:21:35;3.70;99.90
21092;DHT22;10704;42.678;23.288;2023-11-21T02:24:02;3.70;99.90
21092;DHT22;10704;42.678;23.288;2023-11-21T02:26:28;3.80;99.90
21092;DHT22;10704;42.678;23.288;2023-11-21T02:28:54;3.80;99.90
21092;DHT22;10704;42.678;23.288;2023-11-21T02:31:20;3.80;99.90
21092;DHT22;10704;42.678;23.288;2023-11-21T02:33:46;3.80;99.90
21092;DHT22;10704;42.678;23.288;2023-11-21T02:36:12;4.00;99.90
21092;DHT22;10704;42.678;23.288;2023-11-21T02:38:39;4.00;99.90
21092;DHT22;10704;42.678;23.288;2023-11-21T02:41:05;3.90;99.90
21092;DHT22;10704;42.678;23.288;2023-11-21T02:43:31;3.80;99.90
21092;DHT22;10704;42.678;23.288;2023-11-21T02:45:57;3.70;99.90
21092;DHT22;10704;42.678;23.288;2023-11-21T02:48:23;3.60;99.90
21092;DHT22;10704;42.678;23.288;2023-11-21T02:50:51;3.60;99.90
21092;DHT22;10704;42.678;23.288;2023-11-21T02:53:18;3.50;99.90
21092;DHT22;10704;42.678;23.288;2023-11-21T02:55:44;3.50;99.90
21092;DHT22;10704;42.678;23.288;2023-11-21T02:58:10;3.50;99.90
21092;DHT22;10704;42.678;23.288;2023-11-21T03:00:36;3.50;99.90
21092;DHT22;10704;42.678;23.288;2023-11-21T03:03:02;3.50;99.90
21092;DHT22;10704;42.678;23.288;2023-11-21T03:05:30;3.60;99.90
21092;DHT22;10704;42.678;23.288;2023-11-21T03:07:56;3.60;99.90
21092;DHT22;10704;42.678;23.288;2023-11-21T03:10:22;3.50;99.90
21092;DHT22;10704;42.678;23.288;2023-11-21T03:12:49;3.60;99.90
21092;DHT22;10704;42.678;23.288;2023-11-21T03:15:14;3.60;99.90
21092;DHT22;10704;42.678;23.288;2023-11-21T03:17:42;3.60;99.90
21092;DHT22;10704;42.678;23.288;2023-11-21T03:20:08;3.60;99.90
21092;DHT22;10704;42.678;23.288;2023-11-21T03:22:37;3.60;99.90
21092;DHT22;10704;42.678;23.288;2023-11-21T03:25:04;3.60;99.90
21092;DHT22;10704;42.678;23.288;2023-11-21T03:27:30;3.70;99.90
21092;DHT22;10704;42.678;23.288;2023-11-21T03:29:56;3.60;99.90
21092;DHT22;10704;42.678;23.288;2023-11-21T03:32:22;3.50;99.90
21092;DHT22;10704;42.678;23.288;2023-11-21T03:34:57;3.60;99.90
21092;DHT22;10704;42.678;23.288;2023-11-21T03:37:23;3.60;99.90
21092;DHT22;10704;42.678;23.288;2023-11-21T03:39:50;3.40;99.90
21092;DHT22;10704;42.678;23.288;2023-11-21T03:42:17;3.40;99.90
21092;DHT22;10704;42.678;23.288;2023-11-21T03:44:42;3.40;99.90
21092;DHT22;10704;42.678;23.288;2023-11-21T03:47:08;3.40;99.90
21092;DHT22;10704;42.678;23.288;2023-11-21T03:49:34;3.40;99.90
21092;DHT22;10704;42.678;23.288;2023-11-21T03:52:00;3.30;99.90
21092;DHT22;10704;42.678;23.288;2023-11-21T03:54:26;3.30;99.90
21092;DHT22;10704;42.678;23.288;2023-11-21T03:56:52;3.30;99.90
21092;DHT22;10704;42.678;23.288;2023-11-21T03:59:18;3.30;99.90
21092;DHT22;10704;42.678;23.288;2023-11-21T04:01:43;3.30;99.90
21092;DHT22;10704;42.678;23.288;2023-11-21T04:04:09;3.20;99.90
21092;DHT22;10704;42.678;23.288;2023-11-21T04:06:36;3.20;99.90
21092;DHT22;10704;42.678;23.288;2023-11-21T04:09:03;3.30;99.90
21092;DHT22;10704;42.678;23.288;2023-11-21T04:15:37;3.20;99.90
21092;DHT22;10704;42.678;23.288;2023-11-21T04:18:03;3.20;99.90
21092;DHT22;10704;42.678;23.288;2023-11-21T04:20:29;3.30;99.90
21092;DHT22;10704;42.678;23.288;2023-11-21T04:22:55;3.30;99.90
21092;DHT22;10704;42.678;23.288;2023-11-21T04:25:21;3.40;99.90
21092;DHT22;10704;42.678;23.288;2023-11-21T04:27:49;3.40;99.90
21092;DHT22;10704;42.678;23.288;2023-11-21T04:30:15;3.40;99.90
21092;DHT22;10704;42.678;23.288;2023-11-21T04:32:41;3.40;99.90
21092;DHT22;10704;42.678;23.288;2023-11-21T04:35:10;3.30;99.90
21092;DHT22;10704;42.678;23.288;2023-11-21T04:37:36;3.30;99.90
21092;DHT22;10704;42.678;23.288;2023-11-21T04:40:02;3.30;99.90
21092;DHT22;10704;42.678;23.288;2023-11-21T04:42:34;3.50;99.90
21092;DHT22;10704;42.678;23.288;2023-11-21T04:45:00;3.70;99.90
21092;DHT22;10704;42.678;23.288;2023-11-21T04:47:27;3.80;99.90
21092;DHT22;10704;42.678;23.288;2023-11-21T04:49:52;3.90;99.90
21092;DHT22;10704;42.678;23.288;2023-11-21T04:52:18;3.90;99.90
21092;DHT22;10704;42.678;23.288;2023-11-21T04:54:45;3.90;99.90
21092;DHT22;10704;42.678;23.288;2023-11-21T04:57:11;3.90;99.90
21092;DHT22;10704;42.678;23.288;2023-11-21T04:59:37;3.80;99.90
21092;DHT22;10704;42.678;23.288;2023-11-21T05:02:03;3.70;99.90
21092;DHT22;10704;42.678;23.288;2023-11-21T05:04:30;3.60;99.90
21092;DHT22;10704;42.678;23.288;2023-11-21T05:06:56;3.50;99.90
21092;DHT22;10704;42.678;23.288;2023-11-21T05:09:22;3.50;99.90
21092;DHT22;10704;42.678;23.288;2023-11-21T05:11:48;3.40;99.90
21092;DHT22;10704;42.678;23.288;2023-11-21T05:14:14;3.30;99.90
21092;DHT22;10704;42.678;23.288;2023-11-21T05:16:40;3.30;99.90
21092;DHT22;10704;42.678;23.288;2023-11-21T05:19:06;3.10;99.90
21092;DHT22;10704;42.678;23.288;2023-11-21T05:21:32;3.20;99.90
21092;DHT22;10704;42.678;23.288;2023-11-21T05:23:58;3.40;99.90
21092;DHT22;10704;42.678;23.288;2023-11-21T05:26:24;3.30;99.90
21092;DHT22;10704;42.678;23.288;2023-11-21T05:28:50;3.10;99.90
21092;DHT22;10704;42.678;23.288;2023-11-21T05:31:16;3.50;99.90
21092;DHT22;10704;42.678;23.288;2023-11-21T05:33:42;3.60;99.90
21092;DHT22;10704;42.678;23.288;2023-11-21T05:36:08;3.50;99.90
21092;DHT22;10704;42.678;23.288;2023-11-21T05:38:36;3.50;99.90
21092;DHT22;10704;42.678;23.288;2023-11-21T05:41:02;3.60;99.90
21092;DHT22;10704;42.678;23.288;2023-11-21T05:43:30;3.50;99.90
21092;DHT22;10704;42.678;23.288;2023-11-21T05:45:58;3.50;99.90
21092;DHT22;10704;42.678;23.288;2023-11-21T05:48:23;3.50;99.90
21092;DHT22;10704;42.678;23.288;2023-11-21T05:50:51;3.30;99.90
21092;DHT22;10704;42.678;23.288;2023-11-21T05:53:17;3.30;99.90
21092;DHT22;10704;42.678;23.288;2023-11-21T05:55:43;3.30;99.90
21092;DHT22;10704;42.678;23.288;2023-11-21T05:58:08;3.30;99.90
21092;DHT22;10704;42.678;23.288;2023-11-21T06:07:26;3.50;99.90
21092;DHT22;10704;42.678;23.288;2023-11-21T06:09:52;3.50;99.90
21092;DHT22;10704;42.678;23.288;2023-11-21T06:12:18;3.60;99.90
21092;DHT22;10704;42.678;23.288;2023-11-21T06:14:46;3.60;99.90
21092;DHT22;10704;42.678;23.288;2023-11-21T06:17:11;3.70;99.90
21092;DHT22;10704;42.678;23.288;2023-11-21T06:19:39;3.80;99.90
21092;DHT22;10704;42.678;23.288;2023-11-21T06:28:45;4.00;99.90
21092;DHT22;10704;42.678;23.288;2023-11-21T06:31:11;4.00;99.90
21092;DHT22;10704;42.678;23.288;2023-11-21T06:37:31;4.10;99.90
21092;DHT22;10704;42.678;23.288;2023-11-21T06:39:59;4.10;99.90
21092;DHT22;10704;42.678;23.288;2023-11-21T06:42:25;4.00;99.90
21092;DHT22;10704;42.678;23.288;2023-11-21T06:44:51;4.00;99.90
21092;DHT22;10704;42.678;23.288;2023-11-21T06:47:18;4.00;99.90
21092;DHT22;10704;42.678;23.288;2023-11-21T06:49:46;4.00;99.90
21092;DHT22;10704;42.678;23.288;2023-11-21T06:52:13;4.00;99.90
21092;DHT22;10704;42.678;23.288;2023-11-21T06:54:40;4.10;99.90
21092;DHT22;10704;42.678;23.288;2023-11-21T06:57:05;4.20;99.90
21092;DHT22;10704;42.678;23.288;2023-11-21T06:59:32;4.20;99.90
21092;DHT22;10704;42.678;23.288;2023-11-21T07:01:57;4.30;99.90
21092;DHT22;10704;42.678;23.288;2023-11-21T07:08:11;4.50;99.90
21092;DHT22;10704;42.678;23.288;2023-11-21T07:10:38;4.60;99.90
21092;DHT22;10704;42.678;23.288;2023-11-21T07:13:05;4.50;99.90
21092;DHT22;10704;42.678;23.288;2023-11-21T07:15:30;4.50;99.90
21092;DHT22;10704;42.678;23.288;2023-11-21T07:17:56;4.50;99.90
21092;DHT22;10704;42.678;23.288;2023-11-21T07:20:22;4.60;99.90
21092;DHT22;10704;42.678;23.288;2023-11-21T07:22:49;4.80;99.90
21092;DHT22;10704;42.678;23.288;2023-11-21T07:25:15;4.90;99.90
21092;DHT22;10704;42.678;23.288;2023-11-21T07:27:41;5.00;99.90
21092;DHT22;10704;42.678;23.288;2023-11-21T07:30:08;5.20;99.90
21092;DHT22;10704;42.678;23.288;2023-11-21T07:33:05;5.30;99.90
21092;DHT22;10704;42.678;23.288;2023-11-21T07:35:33;5.50;99.90
21092;DHT22;10704;42.678;23.288;2023-11-21T07:37:59;5.80;99.90
21092;DHT22;10704;42.678;23.288;2023-11-21T07:43:28;6.10;99.90
21092;DHT22;10704;42.678;23.288;2023-11-21T07:46:01;6.20;99.90
21092;DHT22;10704;42.678;23.288;2023-11-21T07:48:29;6.30;99.90
21092;DHT22;10704;42.678;23.288;2023-11-21T07:50:55;6.10;99.90
21092;DHT22;10704;42.678;23.288;2023-11-21T07:57:09;6.10;99.90
21092;DHT22;10704;42.678;23.288;2023-11-21T07:59:37;6.60;99.90
21092;DHT22;10704;42.678;23.288;2023-11-21T08:02:25;6.70;99.90
21092;DHT22;10704;42.678;23.288;2023-11-21T08:04:53;6.90;99.90
21092;DHT22;10704;42.678;23.288;2023-11-21T08:11:30;7.00;99.90
21092;DHT22;10704;42.678;23.288;2023-11-21T08:13:58;6.90;99.90
21092;DHT22;10704;42.678;23.288;2023-11-21T08:19:48;7.40;99.90
21092;DHT22;10704;42.678;23.288;2023-11-21T08:22:15;7.70;99.90
21092;DHT22;10704;42.678;23.288;2023-11-21T08:24:44;7.70;99.90
21092;DHT22;10704;42.678;23.288;2023-11-21T08:27:10;8.00;99.90
21092;DHT22;10704;42.678;23.288;2023-11-21T08:29:36;8.00;99.90
21092;DHT22;10704;42.678;23.288;2023-11-21T08:32:02;8.10;99.90
21092;DHT22;10704;42.678;23.288;2023-11-21T08:34:28;8.30;99.90
21092;DHT22;10704;42.678;23.288;2023-11-21T08:36:54;8.60;99.90
21092;DHT22;10704;42.678;23.288;2023-11-21T08:39:21;9.00;99.90
21092;DHT22;10704;42.678;23.288;2023-11-21T08:45:37;9.20;99.90
21092;DHT22;10704;42.678;23.288;2023-11-21T08:48:03;9.40;99.90
21092;DHT22;10704;42.678;23.288;2023-11-21T08:50:29;9.40;99.90
21092;DHT22;10704;42.678;23.288;2023-11-21T08:52:55;9.30;99.90
21092;DHT22;10704;42.678;23.288;2023-11-21T08:55:21;9.10;99.90
21092;DHT22;10704;42.678;23.288;2023-11-21T09:01:34;9.50;99.90
21092;DHT22;10704;42.678;23.288;2023-11-21T09:15:44;8.70;99.90
21092;DHT22;10704;42.678;23.288;2023-11-21T09:18:15;8.80;99.90
21092;DHT22;10704;42.678;23.288;2023-11-21T09:20:42;8.80;99.90
21092;DHT22;10704;42.678;23.288;2023-11-21T09:23:10;8.80;99.90
21092;DHT22;10704;42.678;23.288;2023-11-21T09:25:36;8.90;99.90
21092;DHT22;10704;42.678;23.288;2023-11-21T09:28:04;9.20;99.90
21092;DHT22;10704;42.678;23.288;2023-11-21T09:33:56;9.60;99.90
21092;DHT22;10704;42.678;23.288;2023-11-21T09:36:59;9.60;99.90
21092;DHT22;10704;42.678;23.288;2023-11-21T09:39:25;10.20;99.90
21092;DHT22;10704;42.678;23.288;2023-11-21T09:42:21;10.50;99.90
21092;DHT22;10704;42.678;23.288;2023-11-21T09:52:25;11.60;99.90
21092;DHT22;10704;42.678;23.288;2023-11-21T09:54:52;11.90;99.90
21092;DHT22;10704;42.678;23.288;2023-11-21T10:00:52;12.30;99.90
21092;DHT22;10704;42.678;23.288;2023-11-21T10:03:18;12.20;99.90
21092;DHT22;10704;42.678;23.288;2023-11-21T10:05:45;12.70;99.90
21092;DHT22;10704;42.678;23.288;2023-11-21T10:15:08;14.00;99.90
21092;DHT22;10704;42.678;23.288;2023-11-21T10:17:38;14.80;98.00
21092;DHT22;10704;42.678;23.288;2023-11-21T10:20:13;14.90;96.30
21092;DHT22;10704;42.678;23.288;2023-11-21T10:22:41;14.70;96.30
21092;DHT22;10704;42.678;23.288;2023-11-21T10:25:10;14.60;96.20
21092;DHT22;10704;42.678;23.288;2023-11-21T10:27:37;14.20;97.00
21092;DHT22;10704;42.678;23.288;2023-11-21T10:30:06;13.70;97.60
21092;DHT22;10704;42.678;23.288;2023-11-21T10:32:51;13.10;98.20
21092;DHT22;10704;42.678;23.288;2023-11-21T10:35:24;12.80;99.90
21092;DHT22;10704;42.678;23.288;2023-11-21T10:45:23;12.40;99.90
21092;DHT22;10704;42.678;23.288;2023-11-21T10:51:43;12.10;99.90
21092;DHT22;10704;42.678;23.288;2023-11-21T10:54:09;11.80;99.90
21092;DHT22;10704;42.678;23.288;2023-11-21T10:56:39;11.50;99.90
21092;DHT22;10704;42.678;23.288;2023-11-21T11:13:43;11.20;99.90
21092;DHT22;10704;42.678;23.288;2023-11-21T11:16:12;11.00;99.90
21092;DHT22;10704;42.678;23.288;2023-11-21T11:18:42;11.10;99.90
21092;DHT22;10704;42.678;23.288;2023-11-21T11:30:11;11.10;99.90
21092;DHT22;10704;42.678;23.288;2023-11-21T11:33:13;11.20;99.90
21092;DHT22;10704;42.678;23.288;2023-11-21T11:38:34;11.10;99.90
21092;DHT22;10704;42.678;23.288;2023-11-21T11:41:05;11.00;99.90
21092;DHT22;10704;42.678;23.288;2023-11-21T11:43:32;10.80;99.90
21092;DHT22;10704;42.678;23.288;2023-11-21T11:46:10;10.80;99.90
21092;DHT22;10704;42.678;23.288;2023-11-21T11:48:39;10.70;99.90
21092;DHT22;10704;42.678;23.288;2023-11-21T11:54:53;10.50;99.90
21092;DHT22;10704;42.678;23.288;2023-11-21T11:57:19;10.40;99.90
21092;DHT22;10704;42.678;23.288;2023-11-21T12:00:08;10.40;99.90
21092;DHT22;10704;42.678;23.288;2023-11-21T12:02:40;10.30;99.90
21092;DHT22;10704;42.678;23.288;2023-11-21T12:09:06;10.00;99.90
21092;DHT22;10704;42.678;23.288;2023-11-21T12:15:22;9.70;99.90
21092;DHT22;10704;42.678;23.288;2023-11-21T12:17:49;9.50;99.90
21092;DHT22;10704;42.678;23.288;2023-11-21T12:20:22;9.30;99.90
21092;DHT22;10704;42.678;23.288;2023-11-21T12:22:56;9.20;99.90
21092;DHT22;10704;42.678;23.288;2023-11-21T12:25:24;9.20;99.90
21092;DHT22;10704;42.678;23.288;2023-11-21T12:35:27;9.10;99.90
21092;DHT22;10704;42.678;23.288;2023-11-21T12:46:12;8.90;99.90
21092;DHT22;10704;42.678;23.288;2023-11-21T12:52:27;9.00;99.90
21092;DHT22;10704;42.678;23.288;2023-11-21T12:54:54;9.00;99.90
21092;DHT22;10704;42.678;23.288;2023-11-21T12:57:25;9.00;99.90
21092;DHT22;10704;42.678;23.288;2023-11-21T12:59:57;9.00;99.90
21092;DHT22;10704;42.678;23.288;2023-11-21T13:02:26;9.00;99.90
21092;DHT22;10704;42.678;23.288;2023-11-21T13:04:53;9.00;99.90
21092;DHT22;10704;42.678;23.288;2023-11-21T13:07:19;9.00;99.90
21092;DHT22;10704;42.678;23.288;2023-11-21T13:09:51;9.00;99.90
21092;DHT22;10704;42.678;23.288;2023-11-21T13:12:17;9.00;99.90
21092;DHT22;10704;42.678;23.288;2023-11-21T13:14:46;8.90;99.90
21092;DHT22;10704;42.678;23.288;2023-11-21T13:17:12;8.90;99.90
21092;DHT22;10704;42.678;23.288;2023-11-21T13:19:38;8.90;99.90
21092;DHT22;10704;42.678;23.288;2023-11-21T13:22:04;8.80;99.90
21092;DHT22;10704;42.678;23.288;2023-11-21T13:24:30;8.90;99.90
21092;DHT22;10704;42.678;23.288;2023-11-21T13:26:58;8.90;99.90
21092;DHT22;10704;42.678;23.288;2023-11-21T13:29:24;8.90;99.90
21092;DHT22;10704;42.678;23.288;2023-11-21T13:31:51;9.10;99.90
21092;DHT22;10704;42.678;23.288;2023-11-21T13:34:18;9.10;99.90
21092;DHT22;10704;42.678;23.288;2023-11-21T13:36:48;9.00;99.90
21092;DHT22;10704;42.678;23.288;2023-11-21T13:39:14;8.80;99.90
21092;DHT22;10704;42.678;23.288;2023-11-21T13:45:30;8.80;99.90
21092;DHT22;10704;42.678;23.288;2023-11-21T13:51:11;9.00;99.90
21092;DHT22;10704;42.678;23.288;2023-11-21T14:01:28;8.90;99.90
21092;DHT22;10704;42.678;23.288;2023-11-21T14:03:57;8.90;99.90
21092;DHT22;10704;42.678;23.288;2023-11-21T14:06:34;8.90;99.90
21092;DHT22;10704;42.678;23.288;2023-11-21T14:09:37;8.90;99.90
21092;DHT22;10704;42.678;23.288;2023-11-21T14:12:09;8.80;99.90
21092;DHT22;10704;42.678;23.288;2023-11-21T14:14:35;8.90;99.90
21092;DHT22;10704;42.678;23.288;2023-11-21T14:17:01;9.00;99.90
21092;DHT22;10704;42.678;23.288;2023-11-21T14:19:32;9.00;99.90
21092;DHT22;10704;42.678;23.288;2023-11-21T14:21:59;8.90;99.90
21092;DHT22;10704;42.678;23.288;2023-11-21T14:24:26;8.90;99.90
21092;DHT22;10704;42.678;23.288;2023-11-21T14:26:52;9.00;99.90
21092;DHT22;10704;42.678;23.288;2023-11-21T14:29:19;9.00;99.90
21092;DHT22;10704;42.678;23.288;2023-11-21T14:31:49;8.90;99.90
21092;DHT22;10704;42.678;23.288;2023-11-21T14:34:17;8.90;99.90
21092;DHT22;10704;42.678;23.288;2023-11-21T14:36:44;9.00;99.90
21092;DHT22;10704;42.678;23.288;2023-11-21T14:39:10;8.90;99.90
21092;DHT22;10704;42.678;23.288;2023-11-21T14:41:49;8.90;99.90
21092;DHT22;10704;42.678;23.288;2023-11-21T14:44:15;8.90;99.90
21092;DHT22;10704;42.678;23.288;2023-11-21T14:46:42;8.90;99.90
21092;DHT22;10704;42.678;23.288;2023-11-21T14:49:12;8.80;99.90
21092;DHT22;10704;42.678;23.288;2023-11-21T14:51:51;8.90;99.90
21092;DHT22;10704;42.678;23.288;2023-11-21T14:54:31;8.80;99.90
21092;DHT22;10704;42.678;23.288;2023-11-21T15:00:19;8.70;99.90
21092;DHT22;10704;42.678;23.288;2023-11-21T15:03:01;8.70;99.90
21092;DHT22;10704;42.678;23.288;2023-11-21T15:05:28;8.70;99.90
21092;DHT22;10704;42.678;23.288;2023-11-21T15:14:48;8.70;99.90
21092;DHT22;10704;42.678;23.288;2023-11-21T15:17:18;8.80;99.90
21092;DHT22;10704;42.678;23.288;2023-11-21T15:27:53;8.70;99.90
21092;DHT22;10704;42.678;23.288;2023-11-21T15:34:06;8.80;99.90
21092;DHT22;10704;42.678;23.288;2023-11-21T15:39:38;8.70;99.90
21092;DHT22;10704;42.678;23.288;2023-11-21T15:42:05;8.60;99.90
21092;DHT22;10704;42.678;23.288;2023-11-21T15:44:33;8.70;99.90
21092;DHT22;10704;42.678;23.288;2023-11-21T15:46:59;8.60;99.90
21092;DHT22;10704;42.678;23.288;2023-11-21T15:59:40;8.70;99.90
21092;DHT22;10704;42.678;23.288;2023-11-21T16:02:07;8.70;99.90
21092;DHT22;10704;42.678;23.288;2023-11-21T16:04:36;8.80;99.90
21092;DHT22;10704;42.678;23.288;2023-11-21T16:10:26;8.70;99.90
21092;DHT22;10704;42.678;23.288;2023-11-21T16:12:52;8.60;99.90
21092;DHT22;10704;42.678;23.288;2023-11-21T16:15:18;8.50;99.90
21092;DHT22;10704;42.678;23.288;2023-11-21T16:17:44;8.30;99.90
21092;DHT22;10704;42.678;23.288;2023-11-21T16:27:56;8.20;99.90
21092;DHT22;10704;42.678;23.288;2023-11-21T16:30:24;8.20;99.90
21092;DHT22;10704;42.678;23.288;2023-11-21T16:32:52;8.10;99.90
21092;DHT22;10704;42.678;23.288;2023-11-21T16:35:19;8.10;99.90
21092;DHT22;10704;42.678;23.288;2023-11-21T16:37:45;8.00;99.90
21092;DHT22;10704;42.678;23.288;2023-11-21T16:40:13;8.00;99.90
21092;DHT22;10704;42.678;23.288;2023-11-21T16:42:39;8.00;99.90
21092;DHT22;10704;42.678;23.288;2023-11-21T16:45:07;8.00;99.90
21092;DHT22;10704;42.678;23.288;2023-11-21T16:47:33;7.90;99.90
21092;DHT22;10704;42.678;23.288;2023-11-21T16:49:59;7.80;99.90
21092;DHT22;10704;42.678;23.288;2023-11-21T16:52:25;7.70;99.90
21092;DHT22;10704;42.678;23.288;2023-11-21T16:54:51;7.70;99.90
21092;DHT22;10704;42.678;23.288;2023-11-21T16:57:17;7.70;99.90
21092;DHT22;10704;42.678;23.288;2023-11-21T16:59:43;7.70;99.90
21092;DHT22;10704;42.678;23.288;2023-11-21T17:02:10;7.80;99.90
21092;DHT22;10704;42.678;23.288;2023-11-21T17:04:36;7.70;99.90
21092;DHT22;10704;42.678;23.288;2023-11-21T17:07:07;7.70;99.90
21092;DHT22;10704;42.678;23.288;2023-11-21T17:09:36;7.70;99.90
21092;DHT22;10704;42.678;23.288;2023-11-21T17:12:02;7.60;99.90
21092;DHT22;10704;42.678;23.288;2023-11-21T17:14:31;7.60;99.90
21092;DHT22;10704;42.678;23.288;2023-11-21T17:16:57;7.60;99.90
21092;DHT22;10704;42.678;23.288;2023-11-21T17:19:23;7.40;99.90
21092;DHT22;10704;42.678;23.288;2023-11-21T17:21:49;7.40;99.90
21092;DHT22;10704;42.678;23.288;2023-11-21T17:24:15;7.40;99.90
21092;DHT22;10704;42.678;23.288;2023-11-21T17:26:43;7.30;99.90
21092;DHT22;10704;42.678;23.288;2023-11-21T17:29:09;7.40;99.90
21092;DHT22;10704;42.678;23.288;2023-11-21T17:31:36;7.40;99.90
21092;DHT22;10704;42.678;23.288;2023-11-21T17:41:03;7.30;99.90
21092;DHT22;10704;42.678;23.288;2023-11-21T17:43:29;7.30;99.90
21092;DHT22;10704;42.678;23.288;2023-11-21T17:45:54;7.30;99.90
21092;DHT22;10704;42.678;23.288;2023-11-21T17:48:20;7.40;99.90
21092;DHT22;10704;42.678;23.288;2023-11-21T17:50:46;7.30;99.90
21092;DHT22;10704;42.678;23.288;2023-11-21T17:53:45;7.30;99.90
21092;DHT22;10704;42.678;23.288;2023-11-21T17:56:22;7.40;99.90
21092;DHT22;10704;42.678;23.288;2023-11-21T17:58:49;7.50;99.90
21092;DHT22;10704;42.678;23.288;2023-11-21T18:01:20;7.50;99.90
21092;DHT22;10704;42.678;23.288;2023-11-21T18:03:46;7.50;99.90
21092;DHT22;10704;42.678;23.288;2023-11-21T18:06:12;7.40;99.90
21092;DHT22;10704;42.678;23.288;2023-11-21T18:08:41;7.40;99.90
21092;DHT22;10704;42.678;23.288;2023-11-21T18:11:08;7.30;99.90
21092;DHT22;10704;42.678;23.288;2023-11-21T18:17:22;7.20;99.90
21092;DHT22;10704;42.678;23.288;2023-11-21T18:23:36;7.20;99.90
21092;DHT22;10704;42.678;23.288;2023-11-21T18:26:02;7.20;99.90
21092;DHT22;10704;42.678;23.288;2023-11-21T18:28:30;7.30;99.90
21092;DHT22;10704;42.678;23.288;2023-11-21T18:30:59;7.30;99.90
21092;DHT22;10704;42.678;23.288;2023-11-21T18:33:25;7.40;99.90
21092;DHT22;10704;42.678;23.288;2023-11-21T18:36:15;7.30;99.90
21092;DHT22;10704;42.678;23.288;2023-11-21T18:42:27;7.20;99.90
21092;DHT22;10704;42.678;23.288;2023-11-21T18:48:41;7.20;99.90
21092;DHT22;10704;42.678;23.288;2023-11-21T18:51:08;7.10;99.90
21092;DHT22;10704;42.678;23.288;2023-11-21T18:53:34;7.10;99.90
21092;DHT22;10704;42.678;23.288;2023-11-21T18:56:01;7.20;99.90
21092;DHT22;10704;42.678;23.288;2023-11-21T18:58:27;7.30;99.90
21092;DHT22;10704;42.678;23.288;2023-11-21T19:00:53;7.20;99.90
21092;DHT22;10704;42.678;23.288;2023-11-21T19:07:06;7.20;99.90
21092;DHT22;10704;42.678;23.288;2023-11-21T19:09:32;7.40;99.90
21092;DHT22;10704;42.678;23.288;2023-11-21T19:15:29;7.30;99.90
21092;DHT22;10704;42.678;23.288;2023-11-21T19:17:55;7.30;99.90
21092;DHT22;10704;42.678;23.288;2023-11-21T19:24:09;7.20;99.90
21092;DHT22;10704;42.678;23.288;2023-11-21T19:26:38;7.10;99.90
21092;DHT22;10704;42.678;23.288;2023-11-21T19:29:04;7.10;99.90
21092;DHT22;10704;42.678;23.288;2023-11-21T19:31:31;7.10;99.90
21092;DHT22;10704;42.678;23.288;2023-11-21T19:33:57;6.90;99.90
21092;DHT22;10704;42.678;23.288;2023-11-21T19:36:53;6.90;99.90
21092;DHT22;10704;42.678;23.288;2023-11-21T19:39:20;6.90;99.90
21092;DHT22;10704;42.678;23.288;2023-11-21T19:41:48;7.00;99.90
21092;DHT22;10704;42.678;23.288;2023-11-21T19:44:14;7.10;99.90
21092;DHT22;10704;42.678;23.288;2023-11-21T19:46:40;7.10;99.90
21092;DHT22;10704;42.678;23.288;2023-11-21T19:49:06;7.10;99.90
21092;DHT22;10704;42.678;23.288;2023-11-21T19:51:36;7.00;99.90
21092;DHT22;10704;42.678;23.288;2023-11-21T19:54:02;7.00;99.90
21092;DHT22;10704;42.678;23.288;2023-11-21T19:56:28;6.90;99.90
21092;DHT22;10704;42.678;23.288;2023-11-21T19:58:54;6.90;99.90
21092;DHT22;10704;42.678;23.288;2023-11-21T20:01:20;6.80;99.90
21092;DHT22;10704;42.678;23.288;2023-11-21T20:03:46;6.80;99.90
21092;DHT22;10704;42.678;23.288;2023-11-21T20:06:12;6.90;99.90
21092;DHT22;10704;42.678;23.288;2023-11-21T20:12:25;7.00;99.90
21092;DHT22;10704;42.678;23.288;2023-11-21T20:22:20;7.00;99.90
21092;DHT22;10704;42.678;23.288;2023-11-21T20:28:34;7.00;99.90